Other Surface Observations
Issued by NWS

Current Version | Previous Version | Text Only | Print | Product List | Glossary On
Versions: 1 2 3 4 5 6 7 8 9 10 11 12 13 14 15 16 17 18 19 20 21 22 23 24 25 26 27 28 29 30 31 32 33 34 35 36 37 38 39 40 41 42 43 44 45 46 47 48 49 50
000
SXAK55 KWBC 250729
OSOAK
:SHEF ENCODED 6-MINUTE NOS MET DATA
:NATIONAL WATER LEVEL OBSERVATION NETWORK (NWLON)
:TA(AIR TEMP DEG F)  SLP(SEA LEVEL PRESSURE INCHES)
:UD(WIND DIRECTION WHOLE DEGREES) US(WIND SPEED MPH)
:TW(WATER TEMP DEG F) UG(WIND GUSTS MPH) WC(CONDUCTIVITY uMHOS/CM)
:XV(VISIBILITY SM)
:-9999 (MISSING VALUES)
:PROVIDED BY DOC/NOAA/NOS/CO-OPS, (301) 713-2540
:corms@noaa.gov
.E KECA2 20220925 Z DH0712/TAIRG/DIN06/   56/   56
.E KECA2 20220925 Z DH0712/PLIRG/DIN06/30.08/30.09
.E KECA2 20220925 Z DH0712/USIRG/DIN06/   16/   14
.E KECA2 20220925 Z DH0712/UDIRG/DIN06/  131/  126
.E KECA2 20220925 Z DH0712/UGIRG/DIN06/   23/   19
.E KECA2 20220925 Z DH0712/TWIRG/DIN06/   55/   55
.A PLXA2 20220925 Z DH0712/TAIRG    53/UGIRG    12/PLIRG 29.98/UDIRG   181/USIRG     4/TWIRG    50/WCIRG -9999
.E ITKA2 20220925 Z DH0712/TAIRG/DIN06/   54/   55
.E ITKA2 20220925 Z DH0712/PLIRG/DIN06/29.90/29.90
.E ITKA2 20220925 Z DH0712/TWIRG/DIN06/   56/   56
.E JNEA2 20220925 Z DH0712/TAIRG/DIN06/   49/   49
.E JNEA2 20220925 Z DH0712/PLIRG/DIN06/29.97/29.97
.E JNEA2 20220925 Z DH0712/USIRG/DIN06/    5/    4
.E JNEA2 20220925 Z DH0712/UDIRG/DIN06/  116/  133
.E JNEA2 20220925 Z DH0712/UGIRG/DIN06/    8/    6
.E JNEA2 20220925 Z DH0712/TWIRG/DIN06/   49/   48
.E SKTA2 20220925 Z DH0706/TAIRG/DIN06/   51/   51
.E SKTA2 20220925 Z DH0706/PLIRG/DIN06/29.93/29.93
.E SKTA2 20220925 Z DH0706/TWIRG/DIN06/   49/   49
.E ELFA2 20220925 Z DH0712/TAIRG/DIN06/   51/   51
.E ELFA2 20220925 Z DH0712/PLIRG/DIN06/29.91/29.91
.E ELFA2 20220925 Z DH0712/TWIRG/DIN06/   53/   53
.E YATA2 20220925 Z DH0712/PLIRG/DIN06/29.85/29.86
.E YATA2 20220925 Z DH0712/TWIRG/DIN06/   54/   54
.E CRVA2 20220925 Z DH0712/TAIRG/DIN06/   46/   47
.E CRVA2 20220925 Z DH0712/PLIRG/DIN06/29.76/29.76
.E CRVA2 20220925 Z DH0712/USIRG/DIN06/    3/   10
.E CRVA2 20220925 Z DH0712/UDIRG/DIN06/    5/   22
.E CRVA2 20220925 Z DH0712/UGIRG/DIN06/    9/   13
.E CRVA2 20220925 Z DH0712/WCIRG/DIN06/27434/27520
.E CRVA2 20220925 Z DH0712/TWIRG/DIN06/   51/   51
.E VDZA2 20220925 Z DH0706/TAIRG/DIN06/   41/   41
.E VDZA2 20220925 Z DH0706/PLIRG/DIN06/29.78/29.79
.E VDZA2 20220925 Z DH0706/USIRG/DIN06/    2/    2
.E VDZA2 20220925 Z DH0706/UDIRG/DIN06/  243/  240
.E VDZA2 20220925 Z DH0706/UGIRG/DIN06/    3/    3
.E SWLA2 20220925 Z DH0706/PLIRG/DIN06/29.70/29.70
.E SWLA2 20220925 Z DH0706/TWIRG/DIN06/   55/   55
.E OVIA2 20220925 Z DH0712/PLIRG/DIN06/29.63/29.63
.E OVIA2 20220925 Z DH0712/TWIRG/DIN06/   51/   51
.A NKTA2 20220925 Z DH0712/TAIRG    46/UGIRG    11/PLIRG 29.65/UDIRG   114/USIRG     9/TWIRG    53/WCIRG -9999
.A ANTA2 20220925 Z DH0712/TAIRG    47/UGIRG     2/PLIRG 29.68/UDIRG    84/USIRG     2/TWIRG    50/WCIRG -9999
.E KDAA2 20220925 Z DH0706/TAIRG/DIN06/   47/   46
.E KDAA2 20220925 Z DH0706/PLIRG/DIN06/29.63/29.63
.E KDAA2 20220925 Z DH0706/USIRG/DIN06/    6/    6
.E KDAA2 20220925 Z DH0706/UDIRG/DIN06/  249/  264
.E KDAA2 20220925 Z DH0706/UGIRG/DIN06/    9/    7
.E KDAA2 20220925 Z DH0706/TWIRG/DIN06/   50/   50
.E ALIA2 20220925 Z DH0712/TAIRG/DIN06/   49/   49
.E ALIA2 20220925 Z DH0712/PLIRG/DIN06/29.62/29.62
.E ALIA2 20220925 Z DH0712/USIRG/DIN06/    8/    8
.E ALIA2 20220925 Z DH0712/UDIRG/DIN06/  230/  227
.E ALIA2 20220925 Z DH0712/UGIRG/DIN06/   11/   10
.E ALIA2 20220925 Z DH0712/TWIRG/DIN06/   51/   52
.E SNDA2 20220925 Z DH0712/TAIRG/DIN06/   47/   46
.E SNDA2 20220925 Z DH0712/PLIRG/DIN06/29.58/29.58
.E SNDA2 20220925 Z DH0712/USIRG/DIN06/    3/    2
.E SNDA2 20220925 Z DH0712/UDIRG/DIN06/  215/  103
.E SNDA2 20220925 Z DH0712/UGIRG/DIN06/    7/    4
.E SNDA2 20220925 Z DH0712/TWIRG/DIN06/   51/   51
.E KGCA2 20220925 Z DH0712/TAIRG/DIN06/   46/   46
.E KGCA2 20220925 Z DH0712/PLIRG/DIN06/29.57/29.58
.E KGCA2 20220925 Z DH0712/USIRG/DIN06/    8/    9
.E KGCA2 20220925 Z DH0712/UDIRG/DIN06/  351/  349
.E KGCA2 20220925 Z DH0712/UGIRG/DIN06/   13/   14
.E KGCA2 20220925 Z DH0712/TWIRG/DIN06/   49/   49
.A ADKA2 20220925 Z DH0712/TAIRG    46/UGIRG     4/PLIRG 30.06/UDIRG   333/USIRG     1/TWIRG    48/WCIRG -9999
.A ATKA2 20220925 Z DH0712/TAIRG    46/UGIRG    27/PLIRG 29.97/UDIRG   325/USIRG    18/TWIRG    47/WCIRG -9999
.E OLSA2 20220925 Z DH0712/TAIRG/DIN06/   45/   45
.E OLSA2 20220925 Z DH0712/PLIRG/DIN06/29.74/29.74
.E OLSA2 20220925 Z DH0712/USIRG/DIN06/   23/   25
.E OLSA2 20220925 Z DH0712/UDIRG/DIN06/  294/  292
.E OLSA2 20220925 Z DH0712/UGIRG/DIN06/   26/   28
.A UNLA2 20220925 Z DH0712/TAIRG    46/UGIRG    13/PLIRG 29.67/UDIRG   292/USIRG     7/TWIRG    47/WCIRG -9999
.E PMOA2 20220925 Z DH0712/PLIRG/DIN06/29.56/29.56
.E PMOA2 20220925 Z DH0712/TWIRG/DIN06/   52/   52
.E VCVA2 20220925 Z DH0712/PLIRG/DIN06/29.72/29.72
.E VCVA2 20220925 Z DH0712/TWIRG/DIN06/   47/   47
.E ULRA2 20220925 Z DH0712/PLIRG/DIN06/29.62/29.62
.E NMTA2 20220925 Z DH0706/TAIRG/DIN06/   41/   42
.E NMTA2 20220925 Z DH0706/PLIRG/DIN06/29.61/29.62
.E NMTA2 20220925 Z DH0706/USIRG/DIN06/    4/    4
.E NMTA2 20220925 Z DH0706/UDIRG/DIN06/   33/   20
.E NMTA2 20220925 Z DH0706/UGIRG/DIN06/    6/    5
.E NMTA2 20220925 Z DH0706/TWIRG/DIN06/   44/   44
.A RDDA2 20220925 Z DH0712/TAIRG    40/UGIRG     6/PLIRG 29.72/UDIRG    90/USIRG     3/TWIRG    47/WCIRG -9999
.E PRDA2 20220925 Z DH0706/TAIRG/DIN06/-9999/   32/   32
.E PRDA2 20220925 Z DH0706/PLIRG/DIN06/29.92/29.92/-9999
.E PRDA2 20220925 Z DH0706/TWIRG/DIN06/   33/   33/-9999



USA.gov is the U.S. government's official web portal to all federal, state and local government web resources and services.